createdAt,value
2023-04-24T05:03:21.170Z,9.77
2023-04-24T05:05:53.351Z,9.72
2023-04-24T05:08:27.134Z,9.59
2023-04-24T05:10:56.633Z,9.60
2023-04-24T05:13:38.504Z,9.60
2023-04-24T05:16:18.978Z,9.51
2023-04-24T05:18:46.078Z,9.45
2023-04-24T05:21:16.027Z,9.40
2023-04-24T05:23:46.097Z,9.41
2023-04-24T05:26:17.476Z,9.47
2023-04-24T05:28:44.230Z,9.46
2023-04-24T05:31:15.265Z,9.42
2023-04-24T05:33:41.966Z,9.46
2023-04-24T05:36:09.267Z,9.43
2023-04-24T05:38:36.367Z,9.47
2023-04-24T05:41:03.634Z,9.50
2023-04-24T05:43:30.178Z,9.53
2023-04-24T05:45:57.439Z,9.55
2023-04-24T05:48:24.398Z,9.53
2023-04-24T05:50:52.097Z,9.59
2023-04-24T05:53:18.912Z,9.53
2023-04-24T05:55:46.699Z,9.56
2023-04-24T05:58:13.439Z,9.54
2023-04-24T06:00:43.843Z,9.55
2023-04-24T06:03:10.854Z,9.59
2023-04-24T06:05:38.373Z,9.57
2023-04-24T06:08:05.228Z,9.57
2023-04-24T06:10:36.957Z,9.56
2023-04-24T06:13:04.741Z,9.55
2023-04-24T06:15:33.609Z,9.51
2023-04-24T06:18:05.797Z,9.53
2023-04-24T06:20:33.858Z,9.53
2023-04-24T06:23:03.060Z,9.61
2023-04-24T06:25:30.360Z,9.56
2023-04-24T06:27:57.453Z,9.63
2023-04-24T06:30:24.736Z,9.58
2023-04-24T06:32:51.876Z,9.58
2023-04-24T06:35:19.136Z,9.57
2023-04-24T06:37:47.378Z,9.64
2023-04-24T06:40:14.319Z,9.66
2023-04-24T06:42:41.029Z,9.61
2023-04-24T06:45:09.562Z,9.58
2023-04-24T06:47:36.329Z,9.60
2023-04-24T06:50:03.700Z,9.61
2023-04-24T06:52:33.684Z,9.64
2023-04-24T06:55:04.829Z,9.67
2023-04-24T06:57:32.334Z,9.60
2023-04-24T06:59:59.748Z,9.63
2023-04-24T07:02:26.542Z,9.65
2023-04-24T07:04:54.243Z,9.70
2023-04-24T07:07:23.528Z,9.66
2023-04-24T07:09:52.269Z,9.63
2023-04-24T07:12:21.464Z,9.63
2023-04-24T07:14:49.328Z,9.69
2023-04-24T07:17:15.965Z,9.63
2023-04-24T07:19:43.574Z,9.70
2023-04-24T07:22:12.478Z,9.68
2023-04-24T07:24:39.633Z,9.76
2023-04-24T07:27:06.347Z,9.74
2023-04-24T07:29:33.538Z,9.71
2023-04-24T07:32:01.469Z,9.72
2023-04-24T07:34:29.921Z,9.69
2023-04-24T07:36:56.600Z,9.67
2023-04-24T07:39:24.481Z,9.70
2023-04-24T07:41:51.071Z,9.71
2023-04-24T07:44:18.292Z,9.81
2023-04-24T07:46:44.908Z,9.82
2023-04-24T07:49:14.232Z,9.81
2023-04-24T07:51:42.197Z,9.84
2023-04-24T07:54:09.596Z,9.89
2023-04-24T07:56:39.735Z,9.86
2023-04-24T07:59:07.405Z,9.94
2023-04-24T08:01:34.023Z,9.94
2023-04-24T08:04:01.529Z,10.03
2023-04-24T08:06:31.343Z,10.15
2023-04-24T08:09:01.534Z,10.21
2023-04-24T08:11:28.460Z,10.22
2023-04-24T08:13:56.284Z,10.23
2023-04-24T08:16:25.055Z,10.26
2023-04-24T08:18:53.120Z,10.21
2023-04-24T08:21:19.969Z,10.17
2023-04-24T08:23:47.839Z,10.16
2023-04-24T08:26:14.728Z,10.24
2023-04-24T08:28:42.076Z,10.33
2023-04-24T08:31:08.784Z,10.39
2023-04-24T08:33:36.312Z,10.46
2023-04-24T08:36:04.704Z,10.51
2023-04-24T08:38:31.978Z,10.61
2023-04-24T08:41:01.150Z,10.64
2023-04-24T08:43:29.143Z,10.61
2023-04-24T08:46:00.759Z,10.58
2023-04-24T08:48:31.721Z,10.58
2023-04-24T08:51:00.396Z,10.55
2023-04-24T08:53:28.219Z,10.57
2023-04-24T08:55:56.936Z,10.55
2023-04-24T08:58:27.052Z,10.65
2023-04-24T09:00:55.698Z,10.68
2023-04-24T09:03:23.841Z,10.64
2023-04-24T09:05:51.699Z,10.62
2023-04-24T09:08:19.990Z,10.48
2023-04-24T09:10:48.567Z,10.43
2023-04-24T09:13:17.412Z,10.49
2023-04-24T09:15:44.202Z,10.46
2023-04-24T09:18:11.445Z,10.33
2023-04-24T09:21:05.242Z,10.34
2023-04-24T09:23:33.505Z,10.30
2023-04-24T09:26:02.464Z,10.20
2023-04-24T09:28:40.969Z,10.20
2023-04-24T09:31:14.957Z,10.27
2023-04-24T09:33:55.245Z,10.28
2023-04-24T09:36:29.074Z,10.32
2023-04-24T09:39:00.853Z,10.33
2023-04-24T09:41:29.412Z,10.34
2023-04-24T09:43:57.712Z,10.33
2023-04-24T09:46:34.128Z,10.29
2023-04-24T09:49:25.441Z,10.28
2023-04-24T09:51:52.436Z,10.38
2023-04-24T09:54:22.130Z,10.20
2023-04-24T09:56:51.463Z,10.14
2023-04-24T09:59:19.955Z,10.14
2023-04-24T10:01:49.451Z,10.17
2023-04-24T10:04:19.646Z,10.16
2023-04-24T10:06:46.527Z,10.00
2023-04-24T10:09:15.059Z,9.98
2023-04-24T10:11:46.901Z,10.00
2023-04-24T10:14:16.195Z,10.09
2023-04-24T10:16:44.377Z,10.12
2023-04-24T10:19:14.748Z,10.15
2023-04-24T10:21:43.526Z,10.08
2023-04-24T10:24:11.235Z,10.10
2023-04-24T10:26:38.407Z,10.10
2023-04-24T10:29:11.013Z,10.06
2023-04-24T10:31:41.297Z,9.98
2023-04-24T10:34:10.709Z,9.97
2023-04-24T10:36:41.755Z,9.93
2023-04-24T10:39:12.798Z,9.88
2023-04-24T10:41:39.540Z,9.96
2023-04-24T10:44:12.063Z,10.04
2023-04-24T10:46:40.735Z,10.07
2023-04-24T10:49:11.670Z,10.00
2023-04-24T10:51:48.406Z,9.94
2023-04-24T10:54:59.318Z,9.88
2023-04-24T10:57:30.024Z,9.74
2023-04-24T11:00:21.668Z,9.77
2023-04-24T11:02:53.280Z,9.56
2023-04-24T11:05:21.842Z,9.58
2023-04-24T11:08:28.447Z,9.48
2023-04-24T11:10:56.274Z,9.45
2023-04-24T11:13:25.175Z,9.40
2023-04-24T11:16:31.336Z,9.31
2023-04-24T11:19:25.993Z,9.27
2023-04-24T11:22:04.007Z,9.28
2023-04-24T11:24:38.433Z,9.29
2023-04-24T11:27:15.880Z,9.40
2023-04-24T11:30:01.219Z,9.43
2023-04-24T11:32:34.219Z,9.42
2023-04-24T11:35:03.725Z,9.44
2023-04-24T11:37:37.128Z,9.48
2023-04-24T11:40:10.049Z,9.55
2023-04-24T11:42:50.346Z,9.58
2023-04-24T11:45:18.587Z,9.59
2023-04-24T11:47:46.248Z,9.58
2023-04-24T11:50:18.491Z,9.57
2023-04-24T11:52:46.742Z,9.66
2023-04-24T11:55:16.921Z,9.68
2023-04-24T11:57:45.573Z,9.65
2023-04-24T12:00:21.789Z,9.70
2023-04-24T12:02:49.771Z,9.70
2023-04-24T12:05:27.459Z,9.80
2023-04-24T12:07:55.049Z,9.82
2023-04-24T12:10:28.176Z,9.82
2023-04-24T12:12:57.104Z,9.67
2023-04-24T12:15:24.693Z,9.54
2023-04-24T12:17:53.009Z,9.50
2023-04-24T12:20:29.180Z,9.41
2023-04-24T12:22:57.629Z,9.34
2023-04-24T12:25:27.166Z,9.37
2023-04-24T12:28:13.564Z,9.34
2023-04-24T12:30:49.179Z,9.36
2023-04-24T12:33:21.179Z,9.40
2023-04-24T12:35:49.525Z,9.38
2023-04-24T12:38:19.140Z,9.37
2023-04-24T12:40:46.183Z,9.40
2023-04-24T12:43:20.706Z,9.40
2023-04-24T12:45:49.291Z,9.40
2023-04-24T12:48:16.527Z,9.37
2023-04-24T12:50:46.464Z,9.38
2023-04-24T12:53:14.873Z,9.33
2023-04-24T12:55:42.176Z,9.17
2023-04-24T12:58:09.167Z,9.17
2023-04-24T13:00:36.444Z,9.11
2023-04-24T13:03:04.337Z,9.14
2023-04-24T13:05:32.019Z,9.15
2023-04-24T13:07:58.819Z,9.25
2023-04-24T13:10:26.261Z,9.28
2023-04-24T13:12:53.051Z,9.32
2023-04-24T13:15:20.360Z,9.34
2023-04-24T13:17:47.054Z,9.23
2023-04-24T13:20:14.341Z,9.07
2023-04-24T13:22:40.981Z,9.04
2023-04-24T13:25:08.695Z,9.15
2023-04-24T13:27:35.535Z,9.11
2023-04-24T13:30:02.940Z,9.10
2023-04-24T13:32:29.852Z,9.15
2023-04-24T13:34:57.988Z,9.20
2023-04-24T13:37:24.570Z,9.23
2023-04-24T13:39:52.550Z,9.17
2023-04-24T13:42:19.819Z,9.16
2023-04-24T13:44:47.375Z,9.17
2023-04-24T13:47:14.328Z,9.21
2023-04-24T13:49:41.491Z,9.13
2023-04-24T13:52:08.486Z,9.16
2023-04-24T13:54:35.850Z,9.20
2023-04-24T13:57:03.834Z,9.25
2023-04-24T13:59:31.129Z,9.24
2023-04-24T14:01:57.790Z,9.15
2023-04-24T14:04:25.336Z,9.14
2023-04-24T14:06:52.250Z,9.13
2023-04-24T14:09:19.372Z,9.20
2023-04-24T14:11:45.957Z,9.26
2023-04-24T14:14:13.028Z,9.27
2023-04-24T14:16:39.794Z,9.30
2023-04-24T14:19:07.317Z,9.26
2023-04-24T14:21:34.474Z,9.18
2023-04-24T14:24:01.666Z,9.13
2023-04-24T14:26:28.350Z,9.09
2023-04-24T14:29:03.976Z,9.12
2023-04-24T14:31:38.311Z,9.12
2023-04-24T14:34:05.552Z,9.10
2023-04-24T14:36:32.494Z,9.12
2023-04-24T14:38:59.566Z,9.12
2023-04-24T14:41:27.317Z,9.15
2023-04-24T14:43:54.366Z,9.21
2023-04-24T14:46:21.075Z,9.17
2023-04-24T14:48:48.444Z,9.20
2023-04-24T14:51:15.202Z,9.16
2023-04-24T14:53:42.513Z,9.26
2023-04-24T14:56:09.100Z,9.31
2023-04-24T14:58:36.377Z,9.25
2023-04-24T15:01:02.999Z,9.20
2023-04-24T15:03:30.891Z,9.08
2023-04-24T15:05:57.895Z,9.11
2023-04-24T15:08:25.316Z,9.11
2023-04-24T15:10:52.168Z,9.04
2023-04-24T15:13:20.116Z,8.96
2023-04-24T15:15:49.681Z,8.92
2023-04-24T15:18:16.878Z,8.95
2023-04-24T15:20:43.676Z,8.93
2023-04-24T15:23:11.356Z,8.91
2023-04-24T15:25:39.070Z,9.03
2023-04-24T15:28:06.647Z,9.10
2023-04-24T15:30:33.506Z,9.13
2023-04-24T15:33:02.081Z,9.19
2023-04-24T15:35:29.110Z,9.18
2023-04-24T15:37:56.345Z,9.26
2023-04-24T15:40:23.261Z,9.21
2023-04-24T15:42:51.078Z,9.11
2023-04-24T15:45:17.874Z,9.12
2023-04-24T15:47:47.403Z,9.13
2023-04-24T15:50:16.338Z,9.12
2023-04-24T15:52:46.432Z,9.17
2023-04-24T15:55:13.071Z,9.23
2023-04-24T15:57:40.974Z,9.27
2023-04-24T16:00:08.565Z,9.18
2023-04-24T16:02:41.565Z,9.19
2023-04-24T16:05:08.760Z,9.13
2023-04-24T16:07:36.458Z,9.20
2023-04-24T16:10:03.269Z,9.24
2023-04-24T16:12:30.620Z,9.19
2023-04-24T16:14:57.299Z,9.19
2023-04-24T16:17:24.515Z,9.10
2023-04-24T16:19:51.248Z,9.05
2023-04-24T16:22:18.498Z,9.02
2023-04-24T16:24:47.087Z,9.09
2023-04-24T16:27:15.464Z,9.05
2023-04-24T16:29:42.020Z,9.04
2023-04-24T16:32:10.658Z,9.07
2023-04-24T16:34:37.507Z,9.10
2023-04-24T16:37:05.790Z,9.10
2023-04-24T16:39:32.519Z,9.03
2023-04-24T16:42:00.213Z,9.03
2023-04-24T16:44:28.040Z,8.96
2023-04-24T16:46:55.607Z,8.90
2023-04-24T16:49:23.853Z,8.82
2023-04-24T16:51:51.347Z,8.80
2023-04-24T16:54:17.955Z,8.80
2023-04-24T16:56:45.307Z,8.86
2023-04-24T16:59:12.279Z,8.89
2023-04-24T17:01:39.794Z,8.88
2023-04-24T17:04:06.565Z,8.91
2023-04-24T17:06:33.996Z,8.89
2023-04-24T17:09:00.821Z,8.90
2023-04-24T17:11:29.858Z,8.82
2023-04-24T17:13:59.798Z,8.82
2023-04-24T17:16:27.739Z,8.81
2023-04-24T17:18:54.385Z,8.78
2023-04-24T17:21:21.647Z,8.81
2023-04-24T17:23:48.198Z,8.82
2023-04-24T17:26:15.656Z,8.82
2023-04-24T17:28:42.344Z,8.73
2023-04-24T17:31:09.760Z,8.71
2023-04-24T17:33:36.386Z,8.72
2023-04-24T17:36:03.419Z,8.65
2023-04-24T17:38:30.410Z,8.62
2023-04-24T17:40:58.675Z,8.59
2023-04-24T17:43:25.408Z,8.64
2023-04-24T17:45:58.274Z,8.65
2023-04-24T17:48:25.700Z,8.59
2023-04-24T17:50:53.306Z,8.61
2023-04-24T17:53:20.207Z,8.55
2023-04-24T17:55:47.573Z,8.51
2023-04-24T17:58:14.936Z,8.48
2023-04-24T18:00:42.205Z,8.43
2023-04-24T18:03:09.580Z,8.39
2023-04-24T18:05:39.338Z,8.39
2023-04-24T18:08:06.204Z,8.37
2023-04-24T18:10:37.365Z,8.34
2023-04-24T18:13:04.966Z,8.29
2023-04-24T18:15:32.104Z,8.25
2023-04-24T18:17:59.561Z,8.25
2023-04-24T18:20:26.658Z,8.24
2023-04-24T18:22:54.598Z,8.24
2023-04-24T18:25:26.385Z,8.29
2023-04-24T18:27:54.877Z,8.27
2023-04-24T18:30:22.533Z,8.27
2023-04-24T18:32:51.088Z,8.24
2023-04-24T18:35:19.464Z,8.29
2023-04-24T18:37:46.358Z,8.26
2023-04-24T18:40:14.889Z,8.21
2023-04-24T18:42:41.948Z,8.13
2023-04-24T18:45:12.412Z,8.09
2023-04-24T18:47:41.237Z,8.10
2023-04-24T18:50:08.297Z,8.09
2023-04-24T18:52:35.511Z,8.08
2023-04-24T18:55:03.617Z,8.07
2023-04-24T18:57:31.054Z,8.15
2023-04-24T18:59:57.649Z,8.17
2023-04-24T19:02:24.948Z,8.10
2023-04-24T19:04:51.638Z,8.11
2023-04-24T19:07:20.062Z,8.06
2023-04-24T19:09:46.999Z,8.00
2023-04-24T19:12:14.369Z,8.00
2023-04-24T19:14:41.110Z,8.01
2023-04-24T19:17:10.281Z,8.02
2023-04-24T19:19:37.001Z,8.04
2023-04-24T19:22:04.643Z,8.01
2023-04-24T19:24:33.255Z,8.00
2023-04-24T19:27:00.695Z,7.99
2023-04-24T19:29:27.284Z,7.99
2023-04-24T19:31:55.908Z,7.98
2023-04-24T19:34:22.613Z,7.90
2023-04-24T19:36:49.594Z,7.93
2023-04-24T19:39:16.501Z,7.93
2023-04-24T19:41:43.689Z,7.90
2023-04-24T19:44:10.510Z,7.86
2023-04-24T19:46:40.257Z,7.88
2023-04-24T19:49:06.937Z,7.79
2023-04-24T19:51:34.374Z,7.81
2023-04-24T19:54:01.591Z,7.75
2023-04-24T19:56:28.195Z,7.72
2023-04-24T19:58:55.090Z,7.66
2023-04-24T20:01:22.062Z,7.66
2023-04-24T20:03:48.765Z,7.64
2023-04-24T20:06:16.162Z,7.63
2023-04-24T20:08:42.826Z,7.65
2023-04-24T20:11:10.336Z,7.64
2023-04-24T20:13:36.949Z,7.65
2023-04-24T20:16:04.660Z,7.65
2023-04-24T20:18:31.302Z,7.66
2023-04-24T20:21:00.206Z,7.66
2023-04-24T20:23:27.011Z,7.61
2023-04-24T20:25:58.281Z,7.63
2023-04-24T20:28:26.292Z,7.64
